Time;durP1;ratioP1;P1;durP2;ratioP2;P2;SDS_P1;SDS_P2;PMS_P1;PMS_P2;Temp;Humidity;BMP_temperature;BMP_pressure;BME280_temperature;BME280_humidity;BME280_pressure;Samples;Min_cycle;Max_cycle;Signal;HPM_P1;HPM_P2
2021/05/11 00:00:27;;;;;;;8.90;3.28;;;;;;;12.42;100.00;100132.00;5076119;28;20024;-81
2021/05/11 00:02:53;;;;;;;9.57;4.03;;;;;;;12.30;100.00;100132.41;5076456;28;20043;-81
2021/05/11 00:05:18;;;;;;;10.48;3.88;;;;;;;12.32;100.00;100147.97;5094110;28;20038;-81
2021/05/11 00:07:43;;;;;;;10.43;3.60;;;;;;;12.24;100.00;100145.59;5075814;28;20024;-81
2021/05/11 00:10:09;;;;;;;8.07;3.50;;;;;;;12.28;100.00;100143.75;5094010;28;20031;-81
2021/05/11 00:12:35;;;;;;;14.02;3.67;;;;;;;12.24;100.00;100145.59;5094025;28;20111;-80
2021/05/11 00:15:01;;;;;;;9.63;3.85;;;;;;;12.23;100.00;100143.06;5094376;28;20081;-80
2021/05/11 00:17:26;;;;;;;10.38;4.30;;;;;;;12.22;100.00;100139.56;5094144;28;20102;-81
2021/05/11 00:19:51;;;;;;;7.45;3.40;;;;;;;12.12;100.00;100133.81;5075778;28;20032;-81
2021/05/11 00:22:17;;;;;;;7.00;3.47;;;;;;;12.05;100.00;100134.91;5093963;28;20051;-81
2021/05/11 00:24:42;;;;;;;9.30;3.10;;;;;;;11.99;100.00;100142.91;5075605;28;20027;-81
2021/05/11 00:27:07;;;;;;;10.40;3.33;;;;;;;11.95;100.00;100141.31;5075809;28;20028;-81
2021/05/11 00:29:32;;;;;;;5.90;2.88;;;;;;;11.88;100.00;100152.78;5076128;28;20105;-81
2021/05/11 00:31:58;;;;;;;8.20;2.90;;;;;;;11.91;100.00;100157.88;5132806;22;20449;-80
2021/05/11 00:34:23;;;;;;;8.13;2.65;;;;;;;12.05;100.00;100155.72;5116695;28;20015;-80
2021/05/11 00:36:48;;;;;;;5.65;2.85;;;;;;;11.85;100.00;100156.31;5118784;28;20015;-80
2021/05/11 00:39:13;;;;;;;8.27;2.95;;;;;;;11.92;100.00;100154.41;5115752;28;20552;-80
2021/05/11 00:41:39;;;;;;;8.48;3.05;;;;;;;11.88;100.00;100137.19;5116595;28;20031;-80
2021/05/11 00:44:20;;;;;;;7.95;3.45;;;;;;;11.80;100.00;100110.56;5116752;28;20495;-80
2021/05/11 00:46:58;;;;;;;7.28;2.92;;;;;;;11.69;100.00;100106.53;5116174;28;20179;-80
2021/05/11 00:49:24;;;;;;;8.68;2.83;;;;;;;11.76;100.00;100102.03;5117273;28;20110;-80
2021/05/11 00:51:50;;;;;;;6.57;2.60;;;;;;;11.64;100.00;100107.59;5117661;28;20023;-80
2021/05/11 00:54:16;;;;;;;8.65;2.92;;;;;;;11.64;100.00;100107.59;5117135;28;20019;-80
2021/05/11 00:56:42;;;;;;;8.23;3.00;;;;;;;11.63;100.00;100119.69;5117557;28;20039;-80
2021/05/11 00:59:12;;;;;;;10.95;3.13;;;;;;;11.68;100.00;100115.22;5120508;28;20024;-79
2021/05/11 01:01:38;;;;;;;7.45;3.10;;;;;;;11.69;100.00;100103.94;5124461;28;20487;-80
2021/05/11 01:04:03;;;;;;;9.63;3.38;;;;;;;11.67;100.00;100116.13;5118504;28;20024;-80
2021/05/11 01:06:28;;;;;;;7.80;3.30;;;;;;;11.64;100.00;100118.81;5120447;28;20020;-80
2021/05/11 01:08:54;;;;;;;9.18;3.33;;;;;;;11.62;100.00;100131.00;5120670;28;20023;-80
2021/05/11 01:11:19;;;;;;;8.07;3.40;;;;;;;11.57;100.00;100132.84;5119473;28;20478;-81
2021/05/11 01:13:45;;;;;;;10.93;3.08;;;;;;;11.53;100.00;100129.50;5121869;28;20070;-80
2021/05/11 01:16:10;;;;;;;8.77;3.13;;;;;;;11.61;100.00;100139.69;5123088;28;20030;-80
2021/05/11 01:18:36;;;;;;;7.75;3.20;;;;;;;11.58;100.00;100131.13;5123630;27;20391;-81
2021/05/11 01:21:19;;;;;;;10.30;3.30;;;;;;;11.58;100.00;100123.34;5124429;28;20019;-80
2021/05/11 01:24:01;;;;;;;8.13;3.25;;;;;;;11.60;100.00;100124.97;5125534;28;20035;-81
2021/05/11 01:26:32;;;;;;;7.72;3.08;;;;;;;11.58;100.00;100112.97;5123365;28;20024;-81
2021/05/11 01:29:09;;;;;;;7.10;3.05;;;;;;;11.65;100.00;100104.06;5117973;28;20170;-81
2021/05/11 01:31:56;;;;;;;7.38;3.22;;;;;;;11.63;100.00;100105.84;5117805;28;20054;-81
2021/05/11 01:46:04;;;;;;;7.85;3.05;;;;;;;11.37;100.00;100101.44;5122528;28;20031;-80
2021/05/11 01:48:31;;;;;;;7.55;3.30;;;;;;;11.43;100.00;100098.66;5123392;28;20035;-80
2021/05/11 01:51:12;;;;;;;9.73;3.67;;;;;;;11.39;100.00;100095.31;5124624;28;20023;-80
2021/05/11 02:09:52;;;;;;;8.02;3.60;;;;;;;11.35;100.00;100098.03;5096127;28;20088;-80
2021/05/11 02:18:29;;;;;;;6.22;2.80;;;;;;;11.35;100.00;100103.22;5120760;28;20031;-80
2021/05/11 02:23:39;;;;;;;7.82;3.08;;;;;;;11.34;100.00;100109.31;5119982;28;20030;-80
2021/05/11 02:26:04;;;;;;;7.43;2.80;;;;;;;11.30;100.00;100103.38;5120774;28;20027;-80
2021/05/11 02:28:30;;;;;;;4.43;1.70;;;;;;;11.12;100.00;100104.72;5119133;28;20106;-81
2021/05/11 02:30:55;;;;;;;6.93;2.17;;;;;;;11.02;100.00;100098.06;5118791;28;20405;-80
2021/05/11 02:33:21;;;;;;;6.57;2.38;;;;;;;11.01;100.00;100080.81;5119693;28;20035;-80
2021/05/11 02:35:47;;;;;;;4.75;2.00;;;;;;;10.88;100.00;100063.88;5124107;28;20031;-81
2021/05/11 02:38:12;;;;;;;9.63;2.35;;;;;;;10.86;100.00;100047.50;5122261;28;20024;-80
2021/05/11 02:40:38;;;;;;;8.32;2.40;;;;;;;10.88;100.00;100032.75;5124538;28;20019;-80
2021/05/11 02:43:07;;;;;;;7.22;2.55;;;;;;;10.74;100.00;100049.53;5120549;28;20019;-80
2021/05/11 02:45:34;;;;;;;6.82;2.22;;;;;;;10.83;100.00;100059.66;5119222;28;20019;-80
2021/05/11 02:47:59;;;;;;;5.75;2.00;;;;;;;10.85;100.00;100058.78;5118194;28;20027;-80
2021/05/11 02:50:29;;;;;;;6.13;2.15;;;;;;;10.84;100.00;100057.94;5117947;28;20399;-80
2021/05/11 02:52:55;;;;;;;5.72;1.92;;;;;;;10.65;100.00;100044.59;5117698;28;20030;-80
2021/05/11 02:55:21;;;;;;;8.63;2.10;;;;;;;10.62;100.00;100049.84;5120642;28;20019;-80
2021/05/11 02:57:47;;;;;;;4.05;1.10;;;;;;;10.59;100.00;100040.44;5122427;28;20028;-80
2021/05/11 03:00:15;;;;;;;5.78;2.20;;;;;;;10.60;100.00;100026.56;5121092;28;20020;-80
2021/05/11 03:02:41;;;;;;;6.95;2.17;;;;;;;10.63;100.00;100023.06;5123466;28;20015;-80
2021/05/11 03:05:07;;;;;;;6.82;2.22;;;;;;;10.65;100.00;100028.19;5123703;28;20196;-80
2021/05/11 03:07:32;;;;;;;6.10;2.28;;;;;;;10.76;100.00;100059.88;5121879;28;20094;-80
2021/05/11 03:09:58;;;;;;;7.10;2.05;;;;;;;10.62;100.00;100082.72;5121095;28;20031;-80
2021/05/11 03:12:24;;;;;;;6.40;2.30;;;;;;;10.77;100.00;100103.91;5121553;28;20476;-80
2021/05/11 03:14:49;;;;;;;10.85;2.20;;;;;;;10.76;100.00;100107.41;5119633;28;20027;-80
2021/05/11 03:17:14;;;;;;;6.75;2.13;;;;;;;10.77;100.00;100116.88;5122209;28;20106;-80
2021/05/11 03:19:39;;;;;;;6.90;2.30;;;;;;;10.74;100.00;100114.38;5117951;28;20023;-81
2021/05/11 03:22:07;;;;;;;6.30;2.25;;;;;;;10.76;100.00;100111.75;5120222;28;20030;-80
2021/05/11 03:24:32;;;;;;;5.65;1.95;;;;;;;10.77;100.00;100084.91;5121528;28;20016;-81
2021/05/11 03:26:57;;;;;;;6.53;2.45;;;;;;;10.81;100.00;100089.16;5126559;28;20053;-80
2021/05/11 03:29:23;;;;;;;8.23;3.20;;;;;;;10.85;100.00;100082.97;5123778;28;20028;-80
2021/05/11 03:31:49;;;;;;;5.00;1.95;;;;;;;10.75;100.00;100059.03;5123200;28;20032;-80
2021/05/11 03:34:14;;;;;;;6.18;2.28;;;;;;;10.78;100.00;100052.91;5122216;28;20077;-81
2021/05/11 03:36:40;;;;;;;6.60;2.38;;;;;;;10.61;100.00;100055.94;5124100;28;20024;-81
2021/05/11 03:39:07;;;;;;;6.85;2.72;;;;;;;10.62;100.00;100057.63;5125245;28;20031;-80
2021/05/11 03:41:41;;;;;;;6.57;2.08;;;;;;;10.61;100.00;100061.13;5131244;28;20031;-80
2021/05/11 03:44:11;;;;;;;8.05;2.22;;;;;;;10.65;100.00;100070.53;5130420;28;20019;-80
2021/05/11 03:46:38;;;;;;;7.15;2.30;;;;;;;10.65;100.00;100086.09;5126221;28;20418;-80
2021/05/11 03:49:05;;;;;;;8.02;2.50;;;;;;;10.67;100.00;100091.25;5120313;28;20026;-80
2021/05/11 03:51:31;;;;;;;9.18;2.33;;;;;;;10.59;100.00;100089.72;5118516;28;20032;-80
2021/05/11 03:53:57;;;;;;;5.63;2.05;;;;;;;10.69;100.00;100082.53;5115161;28;20027;-80
2021/05/11 03:56:23;;;;;;;9.27;2.80;;;;;;;10.68;100.00;100086.00;5113781;28;20016;-80
2021/05/11 03:58:48;;;;;;;5.55;2.80;;;;;;;10.70;100.00;100085.97;5115678;28;20106;-80
2021/05/11 04:01:13;;;;;;;5.18;2.75;;;;;;;10.68;100.00;100078.22;5115819;28;20039;-80
2021/05/11 04:03:39;;;;;;;6.50;3.25;;;;;;;10.68;100.00;100077.38;5117068;28;20031;-80
2021/05/11 04:06:04;;;;;;;8.43;3.55;;;;;;;10.67;100.00;100073.94;5119213;28;20063;-80
2021/05/11 04:11:15;;;;;;;8.18;4.45;;;;;;;10.62;100.00;100062.81;5122530;28;20023;-81
2021/05/11 04:16:26;;;;;;;7.13;3.97;;;;;;;10.63;100.00;100079.25;5116463;28;20045;-80
2021/05/11 04:18:53;;;;;;;5.32;2.50;;;;;;;10.45;100.00;100071.06;5116284;28;20020;-80
2021/05/11 04:21:19;;;;;;;6.45;2.90;;;;;;;10.45;100.00;100070.22;5115594;28;20023;-80
2021/05/11 04:23:46;;;;;;;6.53;2.92;;;;;;;10.52;100.00;100072.59;5116746;28;20106;-80
2021/05/11 04:26:13;;;;;;;6.45;2.75;;;;;;;10.54;100.00;100101.09;5118247;28;20128;-80
2021/05/11 04:28:38;;;;;;;5.43;2.75;;;;;;;10.43;100.00;100113.47;5119373;28;20471;-80
2021/05/11 04:31:05;;;;;;;8.02;2.78;;;;;;;10.53;100.00;100123.59;5118348;28;20027;-80
2021/05/11 04:33:31;;;;;;;6.10;2.80;;;;;;;10.66;100.00;100131.06;5125412;28;20026;-80
2021/05/11 04:35:56;;;;;;;9.27;3.63;;;;;;;10.62;100.00;100125.06;5119786;28;20016;-81
2021/05/11 04:38:24;;;;;;;7.10;3.97;;;;;;;10.68;100.00;100124.06;5120566;28;20027;-81
2021/05/11 04:40:50;;;;;;;8.52;3.70;;;;;;;10.62;100.00;100127.66;5118792;28;20068;-81
2021/05/11 04:43:16;;;;;;;7.30;3.55;;;;;;;10.56;100.00;100122.63;5121123;28;20027;-80
2021/05/11 04:45:41;;;;;;;7.88;4.10;;;;;;;10.58;100.00;100123.44;5121015;28;20039;-80
2021/05/11 04:48:08;;;;;;;7.53;4.25;;;;;;;10.62;100.00;100129.41;5121530;27;20502;-80
2021/05/11 04:50:33;;;;;;;8.52;2.83;;;;;;;10.45;100.00;100127.25;5120915;28;20022;-80
2021/05/11 04:52:58;;;;;;;6.38;3.25;;;;;;;10.47;100.00;100135.84;5121339;28;20024;-80
2021/05/11 04:55:24;;;;;;;9.43;3.53;;;;;;;10.36;100.00;100133.50;5123801;28;20035;-80
2021/05/11 04:57:49;;;;;;;9.18;3.60;;;;;;;10.48;100.00;100129.75;5126472;28;20028;-80
2021/05/11 05:00:16;;;;;;;7.38;2.95;;;;;;;10.53;100.00;100133.06;5119541;28;20102;-80
2021/05/11 05:02:46;;;;;;;6.85;3.25;;;;;;;10.44;100.00;100135.94;5119642;28;20023;-80
2021/05/11 05:05:13;;;;;;;10.15;2.95;;;;;;;10.39;100.00;100132.59;5118754;28;20035;-80
2021/05/11 05:07:39;;;;;;;6.70;2.78;;;;;;;10.29;100.00;100134.56;5118606;28;20027;-81
2021/05/11 05:10:05;;;;;;;9.00;3.60;;;;;;;10.30;100.00;100134.50;5118862;28;20031;-80
2021/05/11 05:12:31;;;;;;;9.30;3.33;;;;;;;10.25;100.00;100128.56;5120870;28;20524;-80
2021/05/11 05:14:56;;;;;;;8.32;3.10;;;;;;;10.19;100.00;100133.00;5122177;28;20098;-80
2021/05/11 05:17:22;;;;;;;6.38;2.80;;;;;;;10.22;100.00;100126.03;5123073;28;20026;-80
2021/05/11 05:19:47;;;;;;;9.60;3.55;;;;;;;10.22;100.00;100128.63;5125173;28;20023;-80
2021/05/11 05:22:13;;;;;;;8.70;3.42;;;;;;;10.19;100.00;100127.81;5120159;28;20437;-80
2021/05/11 05:24:51;;;;;;;11.05;3.00;;;;;;;10.05;100.00;100118.66;5118065;28;20027;-80
2021/05/11 05:27:37;;;;;;;8.10;2.30;;;;;;;9.92;100.00;100122.41;5118275;28;20027;-80
2021/05/11 05:30:03;;;;;;;8.68;2.38;;;;;;;10.00;100.00;100124.81;5119606;28;20026;-80
2021/05/11 05:32:29;;;;;;;8.10;2.00;;;;;;;9.95;100.00;100130.13;5118044;28;20407;-80
2021/05/11 05:34:54;;;;;;;9.45;2.13;;;;;;;9.89;100.00;100119.88;5118579;28;20023;-80
2021/05/11 05:37:19;;;;;;;6.63;1.67;;;;;;;9.81;100.00;100120.03;5120166;28;20023;-80
2021/05/11 05:39:47;;;;;;;7.03;1.85;;;;;;;9.78;100.00;100114.94;5120136;28;20039;-81
2021/05/11 05:42:12;;;;;;;9.48;2.22;;;;;;;9.77;100.00;100113.25;5122537;28;20020;-81
2021/05/11 05:44:37;;;;;;;7.88;1.88;;;;;;;9.73;100.00;100116.78;5118235;28;20084;-81
2021/05/11 05:47:03;;;;;;;9.93;2.17;;;;;;;9.69;100.00;100117.72;5117540;28;20032;-81
2021/05/11 05:49:38;;;;;;;4.60;1.10;;;;;;;9.70;100.00;100116.88;5116854;28;20038;-81
2021/05/11 05:52:06;;;;;;;6.18;1.50;;;;;;;9.72;100.00;100104.72;5120702;28;20031;-81
2021/05/11 05:54:31;;;;;;;12.02;2.38;;;;;;;9.75;100.00;100106.38;5119043;28;20102;-81
2021/05/11 05:56:56;;;;;;;8.07;1.70;;;;;;;9.74;100.00;100096.91;5118499;28;20061;-81
2021/05/11 05:59:22;;;;;;;7.82;1.60;;;;;;;9.64;100.00;100101.47;5120369;28;20546;-81
2021/05/11 06:01:49;;;;;;;9.60;1.80;;;;;;;9.62;100.00;100104.06;5120637;28;20113;-81
2021/05/11 06:04:18;;;;;;;6.30;1.70;;;;;;;9.67;100.00;100099.66;5117107;28;20019;-81
2021/05/11 06:06:44;;;;;;;8.57;1.92;;;;;;;9.51;100.00;100102.59;5116465;28;20112;-82
2021/05/11 06:09:14;;;;;;;6.78;1.73;;;;;;;9.51;100.00;100092.22;5116777;28;20051;-82
2021/05/11 06:11:44;;;;;;;6.93;2.05;;;;;;;9.69;100.00;100095.25;5115513;28;20160;-81
2021/05/11 06:14:23;;;;;;;6.32;1.63;;;;;;;9.68;100.00;100098.75;5117102;28;20031;-81
2021/05/11 06:17:13;;;;;;;8.40;2.13;;;;;;;9.79;100.00;100102.84;5115986;28;20016;-82
2021/05/11 06:19:38;;;;;;;4.90;1.75;;;;;;;9.80;100.00;100110.59;5119580;28;20023;-81
2021/05/11 06:22:03;;;;;;;7.47;2.10;;;;;;;9.86;100.00;100107.84;5118666;28;20020;-81
2021/05/11 06:24:29;;;;;;;8.82;2.10;;;;;;;9.82;100.00;100102.75;5118541;28;20034;-81
2021/05/11 06:26:55;;;;;;;9.23;1.92;;;;;;;9.87;100.00;100093.16;5119549;28;20103;-81
2021/05/11 06:29:22;;;;;;;8.23;2.10;;;;;;;9.84;100.00;100103.59;5119267;28;20028;-81
2021/05/11 06:31:48;;;;;;;10.25;2.15;;;;;;;9.85;100.00;100103.56;5134490;22;20536;-82
2021/05/11 06:34:13;;;;;;;7.00;1.98;;;;;;;9.85;100.00;100100.97;5102152;28;20141;-82
2021/05/11 06:36:38;;;;;;;8.80;2.00;;;;;;;9.97;100.00;100084.28;5101486;28;20066;-82
2021/05/11 06:39:08;;;;;;;7.63;2.00;;;;;;;9.87;100.00;100088.81;5098275;28;20028;-82
2021/05/11 06:41:35;;;;;;;6.60;1.92;;;;;;;9.94;100.00;100089.53;5098112;28;20115;-83
2021/05/11 06:44:06;;;;;;;5.43;1.48;;;;;;;9.85;100.00;100089.75;5100710;28;20038;-83
2021/05/11 06:49:24;;;;;;;8.45;1.95;;;;;;;9.89;100.00;100070.69;5101919;28;20050;-82
2021/05/11 06:54:13;;;;;;;8.35;1.65;;;;;;;9.85;100.00;100059.53;5101445;28;20028;-82
2021/05/11 06:56:42;;;;;;;9.90;1.73;;;;;;;9.94;100.00;100058.44;5081137;28;20027;-82
2021/05/11 06:59:07;;;;;;;5.97;1.80;;;;;;;9.95;100.00;100061.91;5100394;28;20077;-82
2021/05/11 07:01:32;;;;;;;9.88;2.03;;;;;;;9.88;100.00;100050.81;5082133;28;20032;-82
2021/05/11 07:03:58;;;;;;;6.70;1.77;;;;;;;9.92;100.00;100049.88;5082484;28;20049;-82
2021/05/11 07:06:23;;;;;;;9.90;1.90;;;;;;;10.04;100.00;100048.75;5100729;28;20046;-82
2021/05/11 07:08:53;;;;;;;9.38;2.05;;;;;;;10.02;100.00;100041.00;5099263;28;20047;-82
2021/05/11 07:13:44;;;;;;;8.00;1.60;;;;;;;10.01;100.00;100022.91;5098738;28;20077;-81
2021/05/11 07:16:09;;;;;;;8.63;1.60;;;;;;;9.93;100.00;100022.22;5080204;28;20035;-83
2021/05/11 07:18:34;;;;;;;7.10;1.70;;;;;;;10.08;100.00;100024.44;5079414;28;20115;-81
2021/05/11 07:21:00;;;;;;;11.80;2.25;;;;;;;9.87;100.00;100026.66;5098494;28;20468;-81
2021/05/11 07:23:26;;;;;;;8.38;1.88;;;;;;;9.77;100.00;100013.97;5080474;28;20083;-81
2021/05/11 07:29:06;;;;;;;5.80;1.50;;;;;;;9.90;100.00;100021.41;5065378;28;20530;-83
2021/05/11 07:31:31;;;;;;;9.32;2.35;;;;;;;9.93;100.00;100019.63;5100612;28;20063;-83
2021/05/11 07:33:58;;;;;;;8.60;1.70;;;;;;;9.89;100.00;100027.50;5082046;28;20038;-82
2021/05/11 07:36:23;;;;;;;6.38;1.48;;;;;;;9.93;100.00;100027.41;5101339;28;20024;-82
2021/05/11 07:38:49;;;;;;;7.22;1.60;;;;;;;10.04;100.00;99996.91;5099877;28;20092;-82
2021/05/11 07:41:16;;;;;;;7.53;1.63;;;;;;;10.12;100.00;100002.75;5080553;28;20046;-82
2021/05/11 07:43:46;;;;;;;5.55;1.40;;;;;;;10.29;100.00;100003.19;5099145;28;20080;-83
2021/05/11 07:51:44;;;;;;;5.97;1.70;;;;;;;10.40;100.00;100013.28;5099210;28;20483;-82
2021/05/11 08:05:21;;;;;;;7.22;1.73;;;;;;;10.31;100.00;100026.47;5102194;28;20284;-82
2021/05/11 08:15:42;;;;;;;6.32;1.50;;;;;;;10.36;100.00;99999.56;5108095;28;20039;-81
2021/05/11 08:18:19;;;;;;;8.43;1.40;;;;;;;10.36;100.00;100022.88;5088275;28;20043;-81
2021/05/11 08:27:29;;;;;;;5.47;1.40;;;;;;;10.46;100.00;100025.22;5095898;28;20038;-82
2021/05/11 08:29:07;;;;;;;6.93;1.40;;;;;;;10.54;100.00;100034.53;5097092;28;20085;-82
2021/05/11 08:31:32;;;;;;;4.93;1.27;;;;;;;10.52;100.00;100030.25;5078916;28;20091;-82
2021/05/11 08:33:57;;;;;;;7.18;1.40;;;;;;;10.74;100.00;100027.94;5079552;28;20119;-82
2021/05/11 08:36:24;;;;;;;7.65;1.70;;;;;;;10.64;100.00;100018.72;5080403;28;20016;-82
2021/05/11 08:38:50;;;;;;;6.85;1.75;;;;;;;10.70;100.00;100005.56;5079762;28;20028;-82
2021/05/11 08:41:15;;;;;;;8.80;1.70;;;;;;;10.77;100.00;99996.72;5078848;28;20381;-82
2021/05/11 08:43:44;;;;;;;4.28;1.10;;;;;;;10.89;100.00;99987.75;5078032;28;20055;-82
2021/05/11 08:46:11;;;;;;;5.45;1.58;;;;;;;10.91;100.00;99985.97;5080940;28;20365;-82
2021/05/11 08:48:36;;;;;;;11.48;2.60;;;;;;;10.76;100.00;99969.94;5078886;28;20017;-82
2021/05/11 08:51:08;;;;;;;5.90;1.33;;;;;;;10.84;100.00;99954.16;5097056;28;20043;-82
2021/05/11 09:24:36;;;;;;;6.32;1.50;;;;;;;10.85;100.00;99898.78;5101702;28;20062;-81
2021/05/11 09:32:37;;;;;;;5.60;1.33;;;;;;;10.86;100.00;99941.97;5101810;28;20040;-82
2021/05/11 09:56:54;;;;;;;5.30;1.40;;;;;;;11.06;100.00;99860.97;5100265;28;20095;-81
2021/05/11 10:39:37;;;;;;;4.78;1.08;;;;;;;14.06;90.71;99942.72;5037497;28;20388;-82
2021/05/11 10:42:30;;;;;;;5.60;1.50;;;;;;;13.46;90.45;99939.16;5039451;28;20028;-82
2021/05/11 10:46:32;;;;;;;5.40;1.58;;;;;;;13.72;88.47;99935.47;5077918;28;20092;-82
2021/05/11 10:48:16;;;;;;;6.07;1.60;;;;;;;13.54;92.81;99930.09;5099570;28;20100;-82
2021/05/11 10:50:54;;;;;;;7.35;1.40;;;;;;;13.83;90.25;99922.84;5085802;28;20016;-82
2021/05/11 10:53:39;;;;;;;5.78;1.17;;;;;;;13.87;88.57;99927.00;5082202;28;20024;-82
2021/05/11 10:56:42;;;;;;;6.72;1.30;;;;;;;13.66;90.44;99931.34;5081712;28;20024;-82
2021/05/11 11:01:40;;;;;;;8.05;1.50;;;;;;;13.53;88.44;99935.38;5099401;28;20035;-83
2021/05/11 11:04:18;;;;;;;4.68;1.10;;;;;;;13.54;90.13;99940.50;5081572;28;20028;-83
2021/05/11 11:07:05;;;;;;;3.13;0.90;;;;;;;13.36;87.25;99938.63;5080706;28;20020;-83
2021/05/11 11:09:33;;;;;;;5.80;1.33;;;;;;;13.39;90.83;99941.13;5081696;28;20024;-83
2021/05/11 11:12:00;;;;;;;4.20;1.10;;;;;;;13.90;91.28;99933.84;5081490;28;20039;-83
2021/05/11 11:14:33;;;;;;;7.95;1.58;;;;;;;13.92;89.55;99930.28;5080787;28;20508;-83
2021/05/11 11:17:05;;;;;;;6.45;1.60;;;;;;;14.01;88.01;99929.06;5085163;28;20107;-82
2021/05/11 11:19:31;;;;;;;8.25;2.30;;;;;;;13.93;88.50;99929.34;5080115;28;20024;-82
2021/05/11 11:24:29;;;;;;;8.15;1.35;;;;;;;13.69;90.04;99902.56;5097052;28;20481;-81
2021/05/11 11:26:57;;;;;;;5.22;1.48;;;;;;;13.93;88.53;99899.84;5078322;28;20023;-81
2021/05/11 11:29:23;;;;;;;6.22;1.33;;;;;;;14.44;88.30;99901.06;5097571;28;20103;-81
2021/05/11 11:31:49;;;;;;;6.40;1.30;;;;;;;14.24;89.38;99917.63;5078288;28;20511;-81
2021/05/11 11:34:15;;;;;;;7.10;1.50;;;;;;;14.41;86.05;99927.28;5096108;28;20388;-81
2021/05/11 11:36:44;;;;;;;6.37;1.50;;;;;;;14.01;85.60;99931.66;5077738;28;20026;-81
2021/05/11 11:39:17;;;;;;;4.88;1.10;;;;;;;13.59;87.57;99938.56;5078981;28;20575;-82
2021/05/11 11:41:42;;;;;;;6.88;1.40;;;;;;;13.52;87.04;99939.75;5096634;28;20028;-82
2021/05/11 11:44:07;;;;;;;5.88;1.50;;;;;;;13.50;88.55;99944.16;5095838;28;20036;-82
2021/05/11 11:46:33;;;;;;;4.93;1.20;;;;;;;13.38;89.46;99944.63;5096202;28;20085;-81
2021/05/11 11:49:11;;;;;;;5.38;1.00;;;;;;;13.37;87.76;99934.28;5096099;28;20059;-81
2021/05/11 11:51:37;;;;;;;7.25;1.58;;;;;;;13.48;87.64;99917.31;5077808;28;20069;-81
2021/05/11 11:54:05;;;;;;;7.68;1.60;;;;;;;13.48;87.70;99913.84;5077123;28;20104;-81
2021/05/11 11:59:20;;;;;;;6.22;1.50;;;;;;;13.71;89.67;99913.78;5055076;28;20031;-82
2021/05/11 12:02:03;;;;;;;5.15;1.02;;;;;;;13.62;87.18;99903.72;5078141;28;20024;-82
2021/05/11 12:04:30;;;;;;;8.02;1.23;;;;;;;13.39;88.35;99886.41;5096374;28;20024;-82
2021/05/11 12:07:02;;;;;;;4.97;1.40;;;;;;;13.74;89.22;99891.94;5095810;28;20555;-82
2021/05/11 12:09:28;;;;;;;6.53;1.33;;;;;;;13.74;88.55;99884.13;5077639;28;20435;-82
2021/05/11 12:11:53;;;;;;;5.30;1.27;;;;;;;13.42;88.59;99888.91;5095873;28;20024;-82
2021/05/11 12:14:19;;;;;;;5.22;1.08;;;;;;;13.62;85.66;99895.06;5076904;28;20024;-81
2021/05/11 12:16:47;;;;;;;5.38;1.27;;;;;;;13.50;84.95;99894.66;5077690;28;20024;-81
2021/05/11 12:19:17;;;;;;;4.25;1.30;;;;;;;13.62;83.12;99900.28;5095086;28;20023;-81
2021/05/11 12:21:54;;;;;;;5.30;1.00;;;;;;;13.93;82.35;99894.63;5077415;28;20077;-81
2021/05/11 12:24:24;;;;;;;5.18;1.00;;;;;;;13.87;85.33;99894.88;5076883;28;20024;-81
2021/05/11 12:26:49;;;;;;;4.63;1.13;;;;;;;14.17;86.97;99887.50;5077546;28;20077;-81
2021/05/11 12:29:17;;;;;;;6.55;1.75;;;;;;;13.98;83.47;99893.53;5077293;28;20024;-81
2021/05/11 12:31:44;;;;;;;4.85;1.08;;;;;;;14.20;82.55;99896.03;5076954;28;20028;-81
2021/05/11 12:34:14;;;;;;;5.03;1.13;;;;;;;14.38;82.02;99885.72;5105197;23;20043;-81
2021/05/11 12:36:51;;;;;;;6.45;1.20;;;;;;;14.03;84.44;99875.91;5097113;28;20016;-81
2021/05/11 12:42:42;;;;;;;3.90;1.02;;;;;;;13.69;83.61;99863.47;5098050;28;20039;-81
2021/05/11 12:45:15;;;;;;;5.28;0.70;;;;;;;13.39;81.33;99867.34;5099421;28;20024;-81
2021/05/11 12:47:41;;;;;;;6.95;1.02;;;;;;;13.42;83.12;99865.44;5098018;28;20111;-81
2021/05/11 12:50:22;;;;;;;5.35;1.13;;;;;;;13.43;81.77;99859.34;5097290;28;20028;-80
2021/05/11 12:52:50;;;;;;;7.13;1.45;;;;;;;13.54;84.68;99851.91;5097042;28;20135;-81
2021/05/11 12:56:12;;;;;;;5.95;1.20;;;;;;;13.29;83.44;99846.88;5099602;28;20024;-80
2021/05/11 13:01:06;;;;;;;3.83;1.00;;;;;;;13.42;83.55;99841.16;5102865;28;20077;-81
2021/05/11 13:03:47;;;;;;;6.20;1.13;;;;;;;13.38;82.85;99837.84;5100689;28;20023;-81
2021/05/11 13:22:23;;;;;;;5.88;1.05;;;;;;;13.56;82.39;99851.88;5099946;28;20020;-81
2021/05/11 13:27:44;;;;;;;5.00;1.20;;;;;;;13.67;79.61;99873.13;5102836;28;20074;-81
2021/05/11 13:35:37;;;;;;;7.20;1.65;;;;;;;13.52;80.75;99861.56;5099994;28;20035;-82
2021/05/11 13:38:04;;;;;;;5.82;1.00;;;;;;;13.34;80.10;99862.34;5102021;28;20072;-81
2021/05/11 13:40:30;;;;;;;7.30;1.10;;;;;;;13.51;83.00;99867.69;5099459;28;20023;-83
2021/05/11 13:42:55;;;;;;;4.03;1.00;;;;;;;13.58;81.00;99863.94;5100605;28;20095;-82
2021/05/11 13:45:23;;;;;;;6.47;1.30;;;;;;;13.55;80.61;99858.84;5100850;28;20036;-82
2021/05/11 13:48:12;;;;;;;5.47;1.23;;;;;;;13.46;81.81;99864.44;5102427;28;20024;-82
2021/05/11 13:53:11;;;;;;;5.10;1.40;;;;;;;13.73;82.69;99877.22;5105920;28;20023;-81
2021/05/11 13:56:15;;;;;;;3.22;1.10;;;;;;;13.82;81.83;99879.41;5104453;28;20444;-81
2021/05/11 14:04:14;;;;;;;7.50;1.20;;;;;;;14.01;81.01;99872.53;5081681;28;20059;-82
2021/05/11 14:06:39;;;;;;;4.88;1.33;;;;;;;13.74;79.43;99868.50;5094950;28;20036;-83
2021/05/11 14:09:06;;;;;;;3.03;0.90;;;;;;;13.99;81.49;99869.13;5102173;28;20537;-83
2021/05/11 14:11:32;;;;;;;6.82;1.00;;;;;;;13.98;78.29;99862.22;5103101;28;20501;-82
2021/05/11 14:13:58;;;;;;;6.50;1.40;;;;;;;14.27;81.04;99866.16;5103963;28;20027;-82
2021/05/11 14:16:23;;;;;;;6.10;1.10;;;;;;;13.77;79.61;99874.41;5101125;28;20403;-82
2021/05/11 14:18:49;;;;;;;4.85;1.35;;;;;;;14.02;80.20;99879.44;5100206;28;20027;-82
2021/05/11 14:21:14;;;;;;;6.20;1.20;;;;;;;13.94;79.61;99876.28;5102772;28;20034;-81
2021/05/11 14:23:41;;;;;;;3.90;1.00;;;;;;;14.16;80.55;99889.28;5102203;28;20020;-81
2021/05/11 14:26:06;;;;;;;3.17;0.98;;;;;;;13.84;76.81;99890.66;5105063;28;20024;-82
2021/05/11 14:28:31;;;;;;;5.65;1.10;;;;;;;13.69;78.85;99897.34;5104388;28;20020;-82
2021/05/11 14:30:57;;;;;;;5.47;1.00;;;;;;;13.87;80.22;99897.50;5104940;28;20028;-82
2021/05/11 14:33:22;;;;;;;4.63;1.17;;;;;;;13.95;82.70;99890.19;5104352;28;20020;-81
2021/05/11 14:35:47;;;;;;;4.60;1.00;;;;;;;13.80;80.72;99899.50;5103740;28;20032;-82
2021/05/11 14:38:12;;;;;;;4.10;0.80;;;;;;;13.69;81.18;99883.47;5103311;28;20122;-81
2021/05/11 14:40:38;;;;;;;7.10;1.33;;;;;;;13.84;79.44;99874.16;5100931;28;20031;-82
2021/05/11 14:43:03;;;;;;;7.28;1.55;;;;;;;14.05;81.85;99876.69;5104314;28;20024;-80
2021/05/11 14:45:29;;;;;;;5.72;1.17;;;;;;;14.21;82.97;99868.19;5104110;28;20102;-81
2021/05/11 14:47:54;;;;;;;5.35;1.10;;;;;;;14.24;79.09;99865.44;5103650;28;20034;-81
2021/05/11 14:50:21;;;;;;;5.72;1.50;;;;;;;13.96;77.55;99866.66;5101211;28;20024;-81
2021/05/11 14:52:50;;;;;;;8.90;1.40;;;;;;;14.10;81.74;99875.63;5104567;28;20020;-81
2021/05/11 14:55:18;;;;;;;4.53;1.20;;;;;;;14.07;82.86;99876.63;5102772;28;20407;-81
2021/05/11 14:57:43;;;;;;;6.22;1.67;;;;;;;13.75;81.00;99880.59;5099118;28;20557;-81
2021/05/11 15:00:09;;;;;;;7.15;1.50;;;;;;;13.98;81.02;99884.84;5102228;28;20028;-81
2021/05/11 15:02:35;;;;;;;7.40;1.42;;;;;;;13.92;82.72;99891.19;5101104;28;20399;-81
2021/05/11 15:05:01;;;;;;;4.82;1.60;;;;;;;13.84;82.36;99884.59;5100858;28;20028;-81
2021/05/11 15:07:27;;;;;;;5.88;2.03;;;;;;;14.08;82.91;99883.53;5099326;28;20024;-82
2021/05/11 15:09:52;;;;;;;5.35;1.17;;;;;;;13.86;81.82;99893.19;5095399;28;20128;-83
2021/05/11 15:12:17;;;;;;;6.32;1.40;;;;;;;13.84;82.93;99895.00;5097021;28;20049;-83
2021/05/11 15:14:43;;;;;;;5.88;1.60;;;;;;;13.96;81.47;99887.50;5095880;28;20024;-83
2021/05/11 15:17:58;;;;;;;5.20;1.45;;;;;;;14.09;84.03;99890.44;5098344;28;20020;-82